createdAt,value
2019-03-21T00:01:11.406Z,27.87
2019-03-21T00:03:38.790Z,26.60
2019-03-21T00:06:07.352Z,29.70
2019-03-21T00:08:34.716Z,32.00
2019-03-21T00:11:12.513Z,30.57
2019-03-21T00:13:39.883Z,28.53
2019-03-21T00:16:13.740Z,27.17
2019-03-21T00:18:41.251Z,29.83
2019-03-21T00:21:08.640Z,28.33
2019-03-21T00:23:36.038Z,28.87
2019-03-21T00:26:03.441Z,29.30
2019-03-21T00:28:30.837Z,32.43
2019-03-21T00:30:58.238Z,31.47
2019-03-21T00:33:25.806Z,38.13
2019-03-21T00:35:53.195Z,29.33
2019-03-21T00:38:20.602Z,28.40
2019-03-21T00:40:47.990Z,29.87
2019-03-21T00:43:15.371Z,30.13
2019-03-21T00:45:42.822Z,29.70
2019-03-21T00:48:11.366Z,31.87
2019-03-21T00:50:38.812Z,39.20
2019-03-21T00:53:06.218Z,31.73
2019-03-21T00:55:37.862Z,31.20
2019-03-21T00:58:05.242Z,30.40
2019-03-21T01:00:37.171Z,33.43
2019-03-21T01:03:04.970Z,32.63
2019-03-21T01:05:32.365Z,29.53
2019-03-21T01:07:59.724Z,33.03
2019-03-21T01:10:28.374Z,31.13
2019-03-21T01:12:55.766Z,31.77
2019-03-21T01:15:23.188Z,29.50
2019-03-21T01:17:50.580Z,29.73
2019-03-21T01:20:17.975Z,33.40
2019-03-21T01:22:45.816Z,30.87
2019-03-21T01:25:23.940Z,30.30
2019-03-21T01:27:51.306Z,33.57
2019-03-21T01:30:20.004Z,37.70
2019-03-21T01:32:47.373Z,29.57
2019-03-21T01:35:14.768Z,37.63
2019-03-21T01:37:42.167Z,33.13
2019-03-21T01:40:11.100Z,32.30
2019-03-21T01:42:38.479Z,31.60
2019-03-21T01:45:13.738Z,34.67
2019-03-21T01:47:41.123Z,36.93
2019-03-21T01:50:10.142Z,39.20
2019-03-21T01:52:37.512Z,33.97
2019-03-21T01:55:06.669Z,34.37
2019-03-21T01:57:34.106Z,39.50
2019-03-21T02:00:01.498Z,37.37
2019-03-21T02:02:28.934Z,31.17
2019-03-21T02:04:56.312Z,32.40
2019-03-21T02:07:23.727Z,36.67
2019-03-21T02:09:51.126Z,41.20
2019-03-21T02:12:18.540Z,34.70
2019-03-21T02:14:52.049Z,37.70
2019-03-21T02:17:14.996Z,34.93
2019-03-21T02:19:42.390Z,37.07
2019-03-21T02:22:09.765Z,35.83
2019-03-21T02:24:37.162Z,39.93
2019-03-21T02:27:04.577Z,35.87
2019-03-21T02:29:32.041Z,37.00
2019-03-21T02:31:59.439Z,32.97
2019-03-21T02:34:26.803Z,34.30
2019-03-21T02:36:54.178Z,33.93
2019-03-21T02:39:21.585Z,35.70
2019-03-21T02:41:48.996Z,39.33
2019-03-21T02:44:16.440Z,39.97
2019-03-21T02:46:43.808Z,31.90
2019-03-21T02:49:11.209Z,40.30
2019-03-21T02:51:38.612Z,44.87
2019-03-21T02:54:05.990Z,40.30
2019-03-21T02:56:33.405Z,38.83
2019-03-21T02:59:00.850Z,35.43
2019-03-21T03:01:28.309Z,40.53
2019-03-21T03:03:55.782Z,40.53
2019-03-21T03:06:23.228Z,39.83
2019-03-21T03:08:50.623Z,38.33
2019-03-21T03:11:19.649Z,37.07
2019-03-21T03:13:48.297Z,42.80
2019-03-21T03:16:15.673Z,34.10
2019-03-21T03:18:43.030Z,42.23
2019-03-21T03:21:10.442Z,37.80
2019-03-21T03:23:37.812Z,47.47
2019-03-21T03:26:05.747Z,44.33
2019-03-21T03:28:34.683Z,37.77
2019-03-21T03:31:02.115Z,36.17
2019-03-21T03:33:29.652Z,38.67
2019-03-21T03:35:57.044Z,39.10
2019-03-21T03:38:24.504Z,37.33
2019-03-21T03:40:53.512Z,39.17
2019-03-21T03:43:20.893Z,38.73
2019-03-21T03:45:48.370Z,40.03
2019-03-21T03:48:15.752Z,41.40
2019-03-21T03:50:43.244Z,46.17
2019-03-21T03:53:10.637Z,41.10
2019-03-21T03:55:38.091Z,37.50
2019-03-21T03:58:09.877Z,36.47
2019-03-21T04:00:37.531Z,36.33
2019-03-21T04:03:05.025Z,36.87
2019-03-21T04:05:32.487Z,36.30
2019-03-21T04:07:59.907Z,32.93
2019-03-21T04:10:28.838Z,39.23
2019-03-21T04:12:56.208Z,35.93
2019-03-21T04:15:23.602Z,41.07
2019-03-21T04:17:50.995Z,32.77
2019-03-21T04:20:20.131Z,34.90
2019-03-21T04:22:47.504Z,40.63
2019-03-21T04:25:16.407Z,39.10
2019-03-21T04:27:43.813Z,32.50
2019-03-21T04:30:17.941Z,36.20
2019-03-21T04:32:45.413Z,37.23
2019-03-21T04:35:13.481Z,38.63
2019-03-21T04:37:41.335Z,38.57
2019-03-21T04:40:15.331Z,34.97
2019-03-21T04:42:42.763Z,33.67
2019-03-21T04:45:11.523Z,53.73
2019-03-21T04:47:38.994Z,34.03
2019-03-21T04:50:07.955Z,32.20
2019-03-21T04:52:35.417Z,31.73
2019-03-21T04:55:03.041Z,33.60
2019-03-21T04:57:30.458Z,32.97
2019-03-21T04:59:58.019Z,36.00
2019-03-21T05:02:25.524Z,39.80
2019-03-21T05:04:52.931Z,35.63
2019-03-21T05:07:20.396Z,45.73
2019-03-21T05:09:47.789Z,35.70
2019-03-21T05:12:15.148Z,38.23
2019-03-21T05:14:42.575Z,32.43
2019-03-21T05:17:09.951Z,36.10
2019-03-21T05:19:37.322Z,38.03
2019-03-21T05:22:04.734Z,32.23
2019-03-21T05:24:32.161Z,37.27
2019-03-21T05:26:59.553Z,35.63
2019-03-21T05:29:26.957Z,36.27
2019-03-21T05:31:54.344Z,35.27
2019-03-21T05:34:21.783Z,34.37
2019-03-21T05:36:50.436Z,36.10
2019-03-21T05:39:18.024Z,38.80
2019-03-21T05:41:45.438Z,36.13
2019-03-21T05:44:26.341Z,37.17
2019-03-21T05:46:53.753Z,34.37
2019-03-21T05:49:21.152Z,36.63
2019-03-21T05:51:48.544Z,34.00
2019-03-21T05:54:15.946Z,35.43
2019-03-21T05:56:43.403Z,39.00
2019-03-21T05:59:10.798Z,35.17
2019-03-21T06:01:38.245Z,37.67
2019-03-21T06:04:06.057Z,35.37
2019-03-21T06:06:35.069Z,41.27
2019-03-21T06:09:02.543Z,38.83
2019-03-21T06:11:29.939Z,43.40
2019-03-21T06:13:57.319Z,40.47
2019-03-21T06:16:24.725Z,33.27
2019-03-21T06:18:53.653Z,39.13
2019-03-21T06:21:25.249Z,42.80
2019-03-21T06:23:54.363Z,38.97
2019-03-21T06:26:40.037Z,41.33
2019-03-21T06:29:07.433Z,41.33
2019-03-21T06:31:34.803Z,37.70
2019-03-21T06:34:02.200Z,38.43
2019-03-21T06:36:29.624Z,39.70
2019-03-21T06:38:57.014Z,40.13
2019-03-21T06:41:24.415Z,36.57
2019-03-21T06:43:51.834Z,35.67
2019-03-21T06:46:19.221Z,36.27
2019-03-21T06:48:46.592Z,38.27
2019-03-21T06:51:13.973Z,38.60
2019-03-21T06:53:41.352Z,39.10
2019-03-21T06:56:08.837Z,41.97
2019-03-21T06:58:36.223Z,37.67
2019-03-21T07:01:03.707Z,36.17
2019-03-21T07:03:31.182Z,37.47
2019-03-21T07:05:58.626Z,43.60
2019-03-21T07:08:26.037Z,37.47
2019-03-21T07:10:53.423Z,34.17
2019-03-21T07:13:20.816Z,30.67
2019-03-21T07:15:48.203Z,29.53
2019-03-21T07:18:15.606Z,36.13
2019-03-21T07:20:43.003Z,32.77
2019-03-21T07:23:10.478Z,38.30
2019-03-21T07:25:37.895Z,34.97
2019-03-21T07:28:05.280Z,33.07
2019-03-21T07:30:32.719Z,39.80
2019-03-21T07:33:00.133Z,33.70
2019-03-21T07:35:27.618Z,34.77
2019-03-21T07:37:55.018Z,30.43
2019-03-21T07:40:22.461Z,33.00
2019-03-21T07:42:49.837Z,34.83
2019-03-21T07:45:17.534Z,36.13
2019-03-21T07:47:45.005Z,32.03
2019-03-21T07:50:13.921Z,37.77
2019-03-21T07:52:41.358Z,34.70
2019-03-21T07:55:09.721Z,35.77
2019-03-21T07:57:37.081Z,40.70
2019-03-21T08:00:14.739Z,35.40
2019-03-21T08:02:42.148Z,37.70
2019-03-21T08:05:10.215Z,33.47
2019-03-21T08:07:37.647Z,35.87
2019-03-21T08:10:06.210Z,35.47
2019-03-21T08:12:33.578Z,38.33
2019-03-21T08:15:00.996Z,36.87
2019-03-21T08:17:28.418Z,43.37
2019-03-21T08:19:55.889Z,35.70
2019-03-21T08:22:23.325Z,36.83
2019-03-21T08:24:50.694Z,41.43
2019-03-21T08:27:18.098Z,39.03
2019-03-21T08:29:45.535Z,42.40
2019-03-21T08:32:12.934Z,42.93
2019-03-21T08:34:40.371Z,39.37
2019-03-21T08:37:07.800Z,40.20
2019-03-21T08:39:35.166Z,43.37
2019-03-21T08:42:02.573Z,32.30
2019-03-21T08:44:29.947Z,38.23
2019-03-21T08:46:57.326Z,36.30
2019-03-21T08:49:24.768Z,42.03
2019-03-21T08:51:52.293Z,38.37
2019-03-21T08:54:19.756Z,39.13
2019-03-21T08:56:47.131Z,33.47
2019-03-21T08:59:14.511Z,41.37
2019-03-21T09:01:41.934Z,36.33
2019-03-21T09:04:09.369Z,34.97
2019-03-21T09:06:36.768Z,33.67
2019-03-21T09:09:05.793Z,40.27
2019-03-21T09:11:33.248Z,38.63
2019-03-21T09:14:00.619Z,34.90
2019-03-21T09:16:28.127Z,34.80
2019-03-21T09:18:55.500Z,33.60
2019-03-21T09:21:23.131Z,36.60
2019-03-21T09:23:50.538Z,34.00
2019-03-21T09:26:17.927Z,33.43
2019-03-21T09:28:45.335Z,29.50
2019-03-21T09:31:12.739Z,32.97
2019-03-21T09:33:40.113Z,30.33
2019-03-21T09:36:09.055Z,29.63
2019-03-21T09:38:36.468Z,29.17
2019-03-21T09:41:03.846Z,26.33
2019-03-21T09:43:31.250Z,26.57
2019-03-21T09:45:58.661Z,27.20
2019-03-21T09:48:26.035Z,23.93
2019-03-21T09:50:53.447Z,24.17
2019-03-21T09:53:20.837Z,29.70
2019-03-21T09:55:48.247Z,24.07
2019-03-21T09:58:15.625Z,26.67
2019-03-21T10:00:43.082Z,28.30
2019-03-21T10:03:10.459Z,24.57
2019-03-21T10:05:38.682Z,29.43
2019-03-21T10:08:06.162Z,26.83
2019-03-21T10:10:34.071Z,28.83
2019-03-21T10:13:01.528Z,26.57
2019-03-21T10:15:28.973Z,29.20
2019-03-21T10:17:56.345Z,72.23
2019-03-21T10:20:23.765Z,39.60
2019-03-21T10:22:51.222Z,27.93
2019-03-21T10:25:18.586Z,28.90
2019-03-21T10:27:45.961Z,31.07
2019-03-21T10:30:14.900Z,26.70
2019-03-21T10:32:42.328Z,26.67
2019-03-21T10:35:09.748Z,24.83
2019-03-21T10:37:37.130Z,25.43
2019-03-21T10:40:05.088Z,27.07
2019-03-21T10:42:32.513Z,26.00
2019-03-21T10:44:59.967Z,27.93
2019-03-21T10:47:27.434Z,28.30
2019-03-21T10:49:54.833Z,25.10
2019-03-21T10:52:22.269Z,24.83
2019-03-21T10:54:49.675Z,20.67
2019-03-21T10:57:17.053Z,22.33
2019-03-21T10:59:44.420Z,23.70
2019-03-21T11:02:11.838Z,21.43
2019-03-21T11:04:39.225Z,22.17
2019-03-21T11:07:06.080Z,25.10
2019-03-21T11:09:33.493Z,22.70
2019-03-21T11:12:00.892Z,33.53
2019-03-21T11:14:28.355Z,28.57
2019-03-21T11:16:55.821Z,21.53
2019-03-21T11:19:23.250Z,20.13
2019-03-21T11:21:50.716Z,24.73
2019-03-21T11:24:18.092Z,22.43
2019-03-21T11:26:45.495Z,23.03
2019-03-21T11:29:12.863Z,22.00
2019-03-21T11:31:40.263Z,22.23
2019-03-21T11:34:07.642Z,19.33
2019-03-21T11:36:38.653Z,22.47
2019-03-21T11:39:05.676Z,21.57
2019-03-21T11:41:33.086Z,24.10
2019-03-21T11:44:00.526Z,23.50
2019-03-21T11:46:27.918Z,24.97
2019-03-21T11:48:55.312Z,24.37
2019-03-21T11:51:22.744Z,35.90
2019-03-21T11:53:50.228Z,21.90
2019-03-21T11:56:17.673Z,23.63
2019-03-21T11:58:45.166Z,22.00
2019-03-21T12:01:12.570Z,23.83
2019-03-21T12:03:39.986Z,21.87
2019-03-21T12:06:07.396Z,22.70
2019-03-21T12:08:34.785Z,24.80
2019-03-21T12:11:02.193Z,26.60
2019-03-21T12:13:29.584Z,21.90
2019-03-21T12:15:56.974Z,23.53
2019-03-21T12:18:24.387Z,27.90
2019-03-21T12:20:51.765Z,23.50
2019-03-21T12:23:19.134Z,25.63
2019-03-21T12:25:46.567Z,21.40
2019-03-21T12:28:13.974Z,26.37
2019-03-21T12:30:42.943Z,27.37
2019-03-21T12:33:10.349Z,24.57
2019-03-21T12:35:37.718Z,28.60
2019-03-21T12:38:05.334Z,28.43
2019-03-21T12:40:32.779Z,24.53
2019-03-21T12:43:00.153Z,28.43
2019-03-21T12:45:27.550Z,28.83
2019-03-21T12:47:54.931Z,28.60
2019-03-21T12:50:22.339Z,29.87
2019-03-21T12:52:49.714Z,31.10
2019-03-21T12:55:17.218Z,34.57
2019-03-21T12:57:44.674Z,34.33
2019-03-21T13:00:13.236Z,35.10
2019-03-21T13:02:43.053Z,29.73
2019-03-21T13:05:11.299Z,30.90
2019-03-21T13:07:38.699Z,29.50
2019-03-21T13:10:06.311Z,32.10
2019-03-21T13:12:33.771Z,34.03
2019-03-21T13:15:01.152Z,30.50
2019-03-21T13:17:28.564Z,36.27
2019-03-21T13:19:55.942Z,37.73
2019-03-21T13:22:23.324Z,33.37
2019-03-21T13:24:50.722Z,32.50
2019-03-21T13:27:18.150Z,36.67
2019-03-21T13:29:45.618Z,37.93
2019-03-21T13:32:13.080Z,34.33
2019-03-21T13:34:40.488Z,35.43
2019-03-21T13:37:07.868Z,34.70
2019-03-21T13:39:35.289Z,34.63
2019-03-21T13:42:02.737Z,40.57
2019-03-21T13:44:30.150Z,37.63
2019-03-21T13:46:57.614Z,35.37
2019-03-21T13:49:25.053Z,36.00
2019-03-21T13:51:52.480Z,35.17
2019-03-21T13:54:19.882Z,35.30
2019-03-21T13:56:47.286Z,35.17
2019-03-21T13:59:14.756Z,34.60
2019-03-21T14:01:42.122Z,34.20
2019-03-21T14:04:09.533Z,41.27
2019-03-21T14:06:36.932Z,37.27
2019-03-21T14:09:05.712Z,35.33
2019-03-21T14:11:33.146Z,38.03
2019-03-21T14:14:00.545Z,36.07
2019-03-21T14:16:27.914Z,44.90
2019-03-21T14:18:55.308Z,43.20
2019-03-21T14:21:22.721Z,34.23
2019-03-21T14:23:50.274Z,39.47
2019-03-21T14:26:17.655Z,38.53
2019-03-21T14:28:45.042Z,37.03
2019-03-21T14:31:12.456Z,38.60
2019-03-21T14:33:39.915Z,39.97
2019-03-21T14:36:07.318Z,34.43
2019-03-21T14:38:34.787Z,34.67
2019-03-21T14:41:02.166Z,37.20
2019-03-21T14:43:29.580Z,38.43
2019-03-21T14:45:56.960Z,39.43
2019-03-21T14:48:24.364Z,37.80
2019-03-21T14:50:51.861Z,34.90
2019-03-21T14:53:28.446Z,38.17
2019-03-21T14:55:48.447Z,36.60
2019-03-21T14:58:15.861Z,40.67
2019-03-21T15:00:43.319Z,41.60
2019-03-21T15:03:10.804Z,34.93
2019-03-21T15:05:38.190Z,38.33
2019-03-21T15:08:05.590Z,38.77
2019-03-21T15:10:32.980Z,38.90
2019-03-21T15:13:00.524Z,33.87
2019-03-21T15:15:27.935Z,39.87
2019-03-21T15:17:55.377Z,39.83
2019-03-21T15:20:22.796Z,35.97
2019-03-21T15:22:50.196Z,40.23
2019-03-21T15:25:17.569Z,39.07
2019-03-21T15:27:44.975Z,42.83
2019-03-21T15:30:13.950Z,44.20
2019-03-21T15:32:41.930Z,39.07
2019-03-21T15:35:10.403Z,41.90
2019-03-21T15:37:37.780Z,44.87
2019-03-21T15:40:06.364Z,38.63
2019-03-21T15:42:33.778Z,40.33
2019-03-21T15:45:15.399Z,36.57
2019-03-21T15:47:30.330Z,40.80
2019-03-21T15:49:57.738Z,41.03
2019-03-21T15:52:25.234Z,34.77
2019-03-21T15:54:52.668Z,41.10
2019-03-21T15:57:20.094Z,36.30
2019-03-21T15:59:47.466Z,46.63
2019-03-21T16:02:14.925Z,47.17
2019-03-21T16:04:42.392Z,41.23
2019-03-21T16:07:09.825Z,35.33
2019-03-21T16:09:37.238Z,46.53
2019-03-21T16:12:04.651Z,36.43
2019-03-21T16:14:32.047Z,38.83
2019-03-21T16:16:59.470Z,37.30
2019-03-21T16:19:26.936Z,34.43
2019-03-21T16:21:54.351Z,34.73
2019-03-21T16:24:21.758Z,32.63
2019-03-21T16:26:49.215Z,35.37
2019-03-21T16:29:16.695Z,35.70
2019-03-21T16:31:44.088Z,33.40
2019-03-21T16:34:11.489Z,36.47
2019-03-21T16:36:38.886Z,42.60
2019-03-21T16:39:06.718Z,28.27
2019-03-21T16:41:34.128Z,36.00
2019-03-21T16:44:01.528Z,33.23
2019-03-21T16:46:28.994Z,33.97
2019-03-21T16:48:56.387Z,33.60
2019-03-21T16:51:23.860Z,35.90
2019-03-21T16:53:51.316Z,39.53
2019-03-21T16:56:18.764Z,41.63
2019-03-21T16:58:46.200Z,41.40
2019-03-21T17:01:13.604Z,33.03
2019-03-21T17:03:40.986Z,38.37
2019-03-21T17:06:08.392Z,38.30
2019-03-21T17:08:35.803Z,38.37
2019-03-21T17:11:03.286Z,39.97
2019-03-21T17:13:30.749Z,37.67
2019-03-21T17:15:58.193Z,36.40
2019-03-21T17:18:25.622Z,37.47
2019-03-21T17:20:53.071Z,41.00
2019-03-21T17:23:20.471Z,41.53
2019-03-21T17:25:47.948Z,40.23
2019-03-21T17:28:15.391Z,37.30
2019-03-21T17:30:42.755Z,37.67
2019-03-21T17:33:10.180Z,40.83
2019-03-21T17:35:37.723Z,40.77
2019-03-21T17:38:05.182Z,42.93
2019-03-21T17:40:32.620Z,40.27
2019-03-21T17:42:59.997Z,46.50
2019-03-21T17:45:27.416Z,45.50
2019-03-21T17:47:54.845Z,54.47
2019-03-21T17:50:22.285Z,39.83
2019-03-21T17:52:49.675Z,49.27
2019-03-21T17:55:17.138Z,46.97
2019-03-21T17:57:44.551Z,63.80
2019-03-21T18:00:21.363Z,56.47
2019-03-21T18:02:48.763Z,55.23
2019-03-21T18:05:16.227Z,82.13
2019-03-21T18:07:43.682Z,49.87
2019-03-21T18:10:12.624Z,53.47
2019-03-21T18:12:40.016Z,54.43
2019-03-21T18:15:07.691Z,48.20
2019-03-21T18:17:35.181Z,44.07
2019-03-21T18:20:02.556Z,51.50
2019-03-21T18:22:29.931Z,51.87
2019-03-21T18:24:57.400Z,48.23
2019-03-21T18:27:24.886Z,51.27
2019-03-21T18:29:52.291Z,61.47
2019-03-21T18:32:19.657Z,55.60
2019-03-21T18:34:47.069Z,52.73
2019-03-21T18:37:14.487Z,57.80
2019-03-21T18:39:41.884Z,53.07
2019-03-21T18:42:09.327Z,54.60
2019-03-21T18:44:36.707Z,48.27
2019-03-21T18:47:04.168Z,47.37
2019-03-21T18:49:31.667Z,50.67
2019-03-21T18:51:59.177Z,50.77
2019-03-21T18:54:26.591Z,49.27
2019-03-21T18:56:53.999Z,52.80
2019-03-21T18:59:21.423Z,55.50
2019-03-21T19:01:57.954Z,50.70
2019-03-21T19:04:18.019Z,55.63
2019-03-21T19:06:45.460Z,58.70
2019-03-21T19:09:12.891Z,56.37
2019-03-21T19:11:40.294Z,58.60
2019-03-21T19:14:07.667Z,54.80
2019-03-21T19:16:35.122Z,49.30
2019-03-21T19:19:02.619Z,54.40
2019-03-21T19:21:30.131Z,55.43
2019-03-21T19:23:57.583Z,55.60
2019-03-21T19:26:24.983Z,60.83
2019-03-21T19:28:52.474Z,59.47
2019-03-21T19:31:19.952Z,65.37
2019-03-21T19:33:47.442Z,59.47
2019-03-21T19:36:14.838Z,57.93
2019-03-21T19:38:42.248Z,59.97
2019-03-21T19:41:09.629Z,64.17
2019-03-21T19:43:37.051Z,55.90
2019-03-21T19:46:04.448Z,57.00
2019-03-21T19:48:31.915Z,52.33
2019-03-21T19:50:59.285Z,54.40
2019-03-21T19:53:28.825Z,54.80
2019-03-21T19:56:07.780Z,53.67
2019-03-21T19:58:24.946Z,50.87
2019-03-21T20:00:52.418Z,50.87
2019-03-21T20:03:19.824Z,58.63
2019-03-21T20:05:47.208Z,56.67
2019-03-21T20:08:14.680Z,61.87
2019-03-21T20:10:42.091Z,56.37
2019-03-21T20:13:09.506Z,60.43
2019-03-21T20:15:36.957Z,59.37
2019-03-21T20:18:04.335Z,54.90
2019-03-21T20:20:31.706Z,49.63
2019-03-21T20:22:59.112Z,61.43
2019-03-21T20:25:26.516Z,54.30
2019-03-21T20:27:53.896Z,51.80
2019-03-21T20:30:21.720Z,60.30
2019-03-21T20:32:49.311Z,50.30
2019-03-21T20:35:16.915Z,55.07
2019-03-21T20:37:44.358Z,54.30
2019-03-21T20:40:12.802Z,55.13
2019-03-21T20:42:40.305Z,57.23
2019-03-21T20:45:08.921Z,50.53
2019-03-21T20:47:36.318Z,51.70
2019-03-21T20:50:04.679Z,56.30
2019-03-21T20:52:32.089Z,56.20
2019-03-21T20:54:59.503Z,54.23
2019-03-21T20:57:26.917Z,53.43
2019-03-21T20:59:54.313Z,54.03
2019-03-21T21:02:21.685Z,50.03
2019-03-21T21:04:49.106Z,56.23
2019-03-21T21:07:16.473Z,55.10
2019-03-21T21:09:43.885Z,50.07
2019-03-21T21:12:11.283Z,59.47
2019-03-21T21:14:38.708Z,55.13
2019-03-21T21:17:06.113Z,53.80
2019-03-21T21:19:33.477Z,53.50
2019-03-21T21:22:00.900Z,57.50
2019-03-21T21:24:28.295Z,50.53
2019-03-21T21:26:55.802Z,57.07
2019-03-21T21:29:23.234Z,60.83
2019-03-21T21:31:50.629Z,67.27
2019-03-21T21:34:18.038Z,54.37
2019-03-21T21:36:45.445Z,53.90
2019-03-21T21:39:12.821Z,57.17
2019-03-21T21:41:40.203Z,58.97
2019-03-21T21:44:07.611Z,56.03
2019-03-21T21:46:35.004Z,51.20
2019-03-21T21:49:02.475Z,53.10
2019-03-21T21:51:29.897Z,55.57
2019-03-21T21:53:57.314Z,56.30
2019-03-21T21:56:24.804Z,55.63
2019-03-21T21:58:52.246Z,61.10
2019-03-21T22:01:19.656Z,57.30
2019-03-21T22:03:47.126Z,66.67
2019-03-21T22:06:14.591Z,64.13
2019-03-21T22:08:42.042Z,56.73
2019-03-21T22:11:09.456Z,52.10
2019-03-21T22:13:36.827Z,61.47
2019-03-21T22:16:04.246Z,58.07
2019-03-21T22:18:31.668Z,64.93
2019-03-21T22:20:59.041Z,54.37
2019-03-21T22:23:26.410Z,59.77
2019-03-21T22:25:53.822Z,65.63
2019-03-21T22:28:21.192Z,55.47
2019-03-21T22:30:48.582Z,55.17
2019-03-21T22:33:15.976Z,72.00
2019-03-21T22:35:43.342Z,58.73
2019-03-21T22:38:10.742Z,65.17
2019-03-21T22:40:38.126Z,56.83
2019-03-21T22:43:05.544Z,57.23
2019-03-21T22:45:32.985Z,56.93
2019-03-21T22:48:00.373Z,63.87
2019-03-21T22:50:27.778Z,61.27
2019-03-21T22:52:55.160Z,57.77
2019-03-21T22:55:22.538Z,55.60
2019-03-21T22:57:49.936Z,65.00
2019-03-21T23:00:24.939Z,59.67
2019-03-21T23:02:52.392Z,53.70
2019-03-21T23:05:20.018Z,59.10
2019-03-21T23:07:47.485Z,61.30
2019-03-21T23:10:15.066Z,58.27
2019-03-21T23:12:42.935Z,66.80
2019-03-21T23:15:11.556Z,67.70
2019-03-21T23:17:38.984Z,75.83
2019-03-21T23:20:07.285Z,65.57
2019-03-21T23:22:34.708Z,70.20
2019-03-21T23:25:02.107Z,69.23
2019-03-21T23:27:29.606Z,62.13
2019-03-21T23:29:57.124Z,69.17
2019-03-21T23:32:24.600Z,64.70
2019-03-21T23:34:52.048Z,65.70
2019-03-21T23:37:19.483Z,70.20
2019-03-21T23:39:46.911Z,60.97
2019-03-21T23:42:14.389Z,63.77
2019-03-21T23:44:41.864Z,59.03
2019-03-21T23:47:09.363Z,66.57
2019-03-21T23:49:36.753Z,62.43
2019-03-21T23:52:04.161Z,69.40
2019-03-21T23:54:31.568Z,66.07
2019-03-21T23:57:04.391Z,65.03
2019-03-21T23:59:28.312Z,70.20
